Arklow Raider — EIXS — position and weather

sailwx.info

Track history (hours):
 
Tides and Currents Weather Stations Pressure Air Temp Water Temp Dewpoint Dewpoint Depression Visibility Wind Speed Wind Dir Waves Ship Positions

Arklow Raider

Last reported at 2014-Sep-28 11:33 UTC. Time now 2014-Sep-30 13:53 UTC.
Position N 58°42' W 003°02'.

Length 90 m; draft 6.3 m.

Type: Ship. MMSI: 250001268.

Date/timePositionNaut miles runAvg speedWind from/ knotsBaromVisibWave heightAir tempDewpointWater temp
2014-Sep-28 11:33N 58°42' W 003°02'1513.8
2014-Sep-28 10:29N 58°42' W 003°31'1112.2
2014-Sep-28 09:33N 58°41' W 003°53'1111.2
2014-Sep-28 08:33N 58°41' W 004°14'53 8.8
2014-Sep-28 02:31N 58°12' W 005°39'1110.1
2014-Sep-28 01:27N 58°02' W 005°49'131 9.3
2014-Sep-27 11:17N 55°57' W 006°57'6 8.2
2014-Sep-27 10:33N 55°52' W 006°52'7 7.3
2014-Sep-27 09:33N 55°45' W 006°45'6 6.3
2014-Sep-27 08:33N 55°40' W 006°39'6 5.9
2014-Sep-27 07:33N 55°36' W 006°32'8 8.3
2014-Sep-27 06:33N 55°30' W 006°21'1010.0
2014-Sep-27 05:33N 55°25' W 006°06'1212.3
2014-Sep-27 04:33N 55°16' W 005°52'1413.4
2014-Sep-27 03:31N 55°03' W 005°43'1212.6
2014-Sep-27 02:33N 54°52' W 005°35'1312.7
2014-Sep-27 01:33N 54°40' W 005°26'1211.8
2014-Sep-27 00:33N 54°29' W 005°20'1010.1
2014-Sep-26 23:33N 54°19' W 005°22'84 1.9
2014-Sep-25 03:19N 53°33' W 003°23'912.2
2014-Sep-25 02:33N 53°32' W 003°08'6 5.9
2014-Sep-25 01:33N 53°27' W 003°01'0 0.1
2014-Sep-25 00:34N 53°27' W 003°01'0 0.0
2014-Sep-24 23:30N 53°27' W 003°01'0 0.0
2014-Sep-24 22:18N 53°27' W 003°01'0 0.0
2014-Sep-24 21:30N 53°27' W 003°01'0 0.0
2014-Sep-24 20:30N 53°27' W 003°01'0 0.0
2014-Sep-24 19:30N 53°27' W 003°01'0 0.0
2014-Sep-24 18:30N 53°27' W 003°01'0 0.0
2014-Sep-24 17:12N 53°27' W 003°01'0 0.0
2014-Sep-24 16:30N 53°27' W 003°01'0 0.0
2014-Sep-24 15:24N 53°27' W 003°01'0 0.0
2014-Sep-24 14:30N 53°27' W 003°01'0 0.0
2014-Sep-24 13:30N 53°27' W 003°01'0 0.0
2014-Sep-24 12:30N 53°27' W 003°01'0 0.0
2014-Sep-24 11:30N 53°27' W 003°01'0 0.0
2014-Sep-24 09:30N 53°27' W 003°01'0 0.0
2014-Sep-24 08:12N 53°27' W 003°01'0 0.0
2014-Sep-24 07:24N 53°27' W 003°01'0 0.1
2014-Sep-24 06:33N 53°27' W 003°01'0 0.5
2014-Sep-24 05:33N 53°27' W 003°01'1 0.5
2014-Sep-24 04:32N 53°27' W 003°02'8 7.3
2014-Sep-24 03:29N 53°31' W 003°13'10 2.5
2014-Sep-23 23:32N 53°30' W 003°29'  
Track history (hours):
 
Tides and Currents Weather Stations Pressure Air Temp Water Temp Dewpoint Dewpoint Depression Visibility Wind Speed Wind Dir Waves Ship Positions

Arklow Raider

Last reported at 2014-Sep-28 11:33 UTC. Time now 2014-Sep-30 13:53 UTC.
Position N 58°42' W 003°02'.

Length 90 m; draft 6.3 m.

Type: Ship. MMSI: 250001268.

Date/timePositionNaut miles runAvg speedWind from/ knotsBaromVisibWave heightAir tempDewpointWater temp
2014-Sep-28 11:33N 58°42' W 003°02'1513.8
2014-Sep-28 10:29N 58°42' W 003°31'1112.2
2014-Sep-28 09:33N 58°41' W 003°53'1111.2
2014-Sep-28 08:33N 58°41' W 004°14'53 8.8
2014-Sep-28 02:31N 58°12' W 005°39'1110.1
2014-Sep-28 01:27N 58°02' W 005°49'131 9.3
2014-Sep-27 11:17N 55°57' W 006°57'6 8.2
2014-Sep-27 10:33N 55°52' W 006°52'7 7.3
2014-Sep-27 09:33N 55°45' W 006°45'6 6.3
2014-Sep-27 08:33N 55°40' W 006°39'6 5.9
2014-Sep-27 07:33N 55°36' W 006°32'8 8.3
2014-Sep-27 06:33N 55°30' W 006°21'1010.0
2014-Sep-27 05:33N 55°25' W 006°06'1212.3
2014-Sep-27 04:33N 55°16' W 005°52'1413.4
2014-Sep-27 03:31N 55°03' W 005°43'1212.6
2014-Sep-27 02:33N 54°52' W 005°35'1312.7
2014-Sep-27 01:33N 54°40' W 005°26'1211.8
2014-Sep-27 00:33N 54°29' W 005°20'1010.1
2014-Sep-26 23:33N 54°19' W 005°22'84 1.9
2014-Sep-25 03:19N 53°33' W 003°23'912.2
2014-Sep-25 02:33N 53°32' W 003°08'6 5.9
2014-Sep-25 01:33N 53°27' W 003°01'0 0.1
2014-Sep-25 00:34N 53°27' W 003°01'0 0.0
2014-Sep-24 23:30N 53°27' W 003°01'0 0.0
2014-Sep-24 22:18N 53°27' W 003°01'0 0.0
2014-Sep-24 21:30N 53°27' W 003°01'0 0.0
2014-Sep-24 20:30N 53°27' W 003°01'0 0.0
2014-Sep-24 19:30N 53°27' W 003°01'0 0.0
2014-Sep-24 18:30N 53°27' W 003°01'0 0.0
2014-Sep-24 17:12N 53°27' W 003°01'0 0.0
2014-Sep-24 16:30N 53°27' W 003°01'0 0.0
2014-Sep-24 15:24N 53°27' W 003°01'0 0.0
2014-Sep-24 14:30N 53°27' W 003°01'0 0.0
2014-Sep-24 13:30N 53°27' W 003°01'0 0.0
2014-Sep-24 12:30N 53°27' W 003°01'0 0.0
2014-Sep-24 11:30N 53°27' W 003°01'0 0.0
2014-Sep-24 09:30N 53°27' W 003°01'0 0.0
2014-Sep-24 08:12N 53°27' W 003°01'0 0.0
2014-Sep-24 07:24N 53°27' W 003°01'0 0.1
2014-Sep-24 06:33N 53°27' W 003°01'0 0.5
2014-Sep-24 05:33N 53°27' W 003°01'1 0.5
2014-Sep-24 04:32N 53°27' W 003°02'8 7.3
2014-Sep-24 03:29N 53°31' W 003°13'10 2.5
2014-Sep-23 23:32N 53°30' W 003°29'  

Dump ship's entire track history